createdAt,value
2019-01-14T00:00:36.921Z,5.36
2019-01-14T00:01:37.620Z,5.31
2019-01-14T00:02:38.313Z,5.25
2019-01-14T00:03:38.453Z,5.28
2019-01-14T00:04:38.870Z,5.19
2019-01-14T00:05:40.009Z,5.22
2019-01-14T00:06:40.702Z,5.12
2019-01-14T00:07:41.322Z,5.15
2019-01-14T00:08:42.022Z,5.12
2019-01-14T00:09:43.434Z,5.08
2019-01-14T00:10:43.570Z,5.08
2019-01-14T00:11:44.286Z,5.02
2019-01-14T00:12:44.986Z,5.02
2019-01-14T00:13:45.457Z,5
2019-01-14T00:14:45.874Z,4.98
2019-01-14T00:15:47.299Z,5.02
2019-01-14T00:16:47.717Z,4.9
2019-01-14T00:17:48.037Z,4.92
2019-01-14T00:18:49.010Z,5.01
2019-01-14T00:19:49.981Z,4.94
2019-01-14T00:20:50.673Z,5.05
2019-01-14T00:21:51.925Z,4.92
2019-01-14T00:22:52.342Z,4.92
2019-01-14T00:23:52.757Z,4.83
2019-01-14T00:24:53.448Z,4.86
2019-01-14T00:25:54.148Z,4.89
2019-01-14T00:26:54.847Z,4.87
2019-01-14T00:27:55.980Z,4.82
2019-01-14T00:28:56.675Z,4.89
2019-01-14T00:29:56.812Z,4.84
2019-01-14T00:30:57.513Z,4.83
2019-01-14T00:31:58.483Z,4.89
2019-01-14T00:32:59.729Z,4.94
2019-01-14T00:34:01.150Z,4.84
2019-01-14T00:35:02.118Z,4.86
2019-01-14T00:36:02.536Z,4.78
2019-01-14T00:37:02.675Z,4.83
2019-01-14T00:38:03.618Z,4.75
2019-01-14T00:39:03.758Z,4.82
2019-01-14T00:40:04.923Z,4.83
2019-01-14T00:41:05.624Z,4.78
2019-01-14T00:42:06.762Z,4.82
2019-01-14T00:43:07.734Z,4.94
2019-01-14T00:44:08.981Z,4.83
2019-01-14T00:45:09.695Z,4.79
2019-01-14T00:46:10.118Z,4.83
2019-01-14T00:47:10.525Z,4.86
2019-01-14T00:48:11.349Z,4.84
2019-01-14T00:49:12.320Z,4.82
2019-01-14T00:50:12.459Z,4.83
2019-01-14T00:51:13.431Z,4.84
2019-01-14T00:52:14.132Z,4.95
2019-01-14T00:53:15.109Z,4.95
2019-01-14T00:54:15.081Z,4.87
2019-01-14T00:55:15.334Z,4.97
2019-01-14T00:56:16.028Z,5
2019-01-14T00:57:16.447Z,4.98
2019-01-14T00:58:17.109Z,5.05
2019-01-14T00:59:17.260Z,5.05
2019-01-14T01:00:18.952Z,5.07
2019-01-14T01:01:19.646Z,5
2019-01-14T01:02:20.094Z,4.95
2019-01-14T01:03:21.518Z,5.02
2019-01-14T01:04:21.697Z,5.01
2019-01-14T01:05:22.392Z,4.94
2019-01-14T01:06:25.900Z,5
2019-01-14T01:07:27.038Z,4.98
2019-01-14T01:08:27.592Z,5.01
2019-01-14T01:09:28.013Z,5.15
2019-01-14T01:10:28.714Z,5.19
2019-01-14T01:11:29.404Z,5.31
2019-01-14T01:12:29.650Z,5.25
2019-01-14T01:13:30.073Z,5.25
2019-01-14T01:14:31.216Z,5.34
2019-01-14T01:15:32.184Z,5.33
2019-01-14T01:16:32.322Z,5.28
2019-01-14T01:17:33.463Z,5.4
2019-01-14T01:18:34.311Z,5.31
2019-01-14T01:19:35.485Z,5.26
2019-01-14T01:20:35.900Z,5.2
2019-01-14T01:21:36.321Z,5.13
2019-01-14T01:22:37.733Z,5.23
2019-01-14T01:23:38.476Z,5.1
2019-01-14T01:24:38.956Z,5.16
2019-01-14T01:25:39.206Z,5.23
2019-01-14T01:26:40.345Z,5.12
2019-01-14T01:27:41.314Z,5.13
2019-01-14T01:28:41.721Z,5.01
2019-01-14T01:29:42.694Z,5.05
2019-01-14T01:30:43.112Z,5.1
2019-01-14T01:31:44.253Z,5.01
2019-01-14T01:32:45.667Z,4.98
2019-01-14T01:33:46.089Z,4.97
2019-01-14T01:34:46.237Z,5.01
2019-01-14T01:35:47.202Z,5.12
2019-01-14T01:36:47.907Z,5.05
2019-01-14T01:37:49.156Z,5.07
2019-01-14T01:38:49.473Z,5.05
2019-01-14T01:39:50.484Z,5.05
2019-01-14T01:40:50.627Z,5.01
2019-01-14T01:41:51.043Z,5.04
2019-01-14T01:42:51.737Z,5.08
2019-01-14T01:43:52.875Z,4.97
2019-01-14T01:44:54.014Z,4.98
2019-01-14T01:45:54.709Z,5.01
2019-01-14T01:46:55.400Z,5
2019-01-14T01:47:56.105Z,5
2019-01-14T01:48:56.656Z,5.05
2019-01-14T01:49:57.816Z,4.86
2019-01-14T01:50:58.956Z,4.86
2019-01-14T01:51:59.371Z,4.9
2019-01-14T01:53:00.789Z,4.78
2019-01-14T01:54:02.319Z,4.89
2019-01-14T01:55:03.031Z,4.84
2019-01-14T01:56:03.722Z,4.82
2019-01-14T01:57:04.415Z,4.74
2019-01-14T01:58:05.109Z,4.71
2019-01-14T01:59:05.524Z,4.63
2019-01-14T02:00:05.936Z,4.66
2019-01-14T02:01:06.906Z,4.52
2019-01-14T02:02:07.044Z,4.53
2019-01-14T02:03:08.020Z,4.5
2019-01-14T02:04:08.162Z,4.32
2019-01-14T02:05:08.577Z,4.34
2019-01-14T02:06:09.713Z,4.24
2019-01-14T02:07:10.681Z,4.16
2019-01-14T02:08:11.651Z,4.09
2019-01-14T02:09:12.508Z,3.96
2019-01-14T02:10:14.196Z,3.81
2019-01-14T02:11:14.167Z,3.84
2019-01-14T02:12:14.862Z,3.71
2019-01-14T02:13:15.274Z,3.71
2019-01-14T02:14:15.699Z,3.58
2019-01-14T02:15:16.110Z,3.61
2019-01-14T02:16:16.549Z,3.59
2019-01-14T02:17:16.965Z,3.49
2019-01-14T02:18:17.659Z,3.3
2019-01-14T02:19:18.818Z,3.27
2019-01-14T02:20:19.789Z,3.19
2019-01-14T02:21:19.931Z,3.12
2019-01-14T02:22:21.067Z,3.33
2019-01-14T02:23:21.761Z,3.26
2019-01-14T02:24:22.175Z,3.31
2019-01-14T02:25:22.866Z,3.3
2019-01-14T02:26:23.562Z,3.33
2019-01-14T02:27:24.253Z,3.31
2019-01-14T02:28:24.388Z,3.33
2019-01-14T02:29:25.825Z,3.34
2019-01-14T02:30:26.083Z,3.36
2019-01-14T02:31:26.614Z,3.41
2019-01-14T02:32:26.315Z,3.37
2019-01-14T02:33:27.450Z,3.49
2019-01-14T02:34:28.868Z,3.56
2019-01-14T02:35:29.563Z,3.52
2019-01-14T02:36:30.541Z,3.59
2019-01-14T02:37:31.508Z,3.5
2019-01-14T02:38:31.814Z,3.45
2019-01-14T02:39:33.195Z,3.43
2019-01-14T02:40:33.610Z,3.55
2019-01-14T02:41:34.861Z,3.52
2019-01-14T02:42:35.628Z,3.59
2019-01-14T02:43:36.601Z,3.59
2019-01-14T02:44:37.374Z,3.59
2019-01-14T02:45:38.357Z,3.56
2019-01-14T02:46:39.051Z,3.61
2019-01-14T02:47:40.330Z,3.55
2019-01-14T02:48:40.297Z,3.66
2019-01-14T02:49:40.709Z,3.68
2019-01-14T02:50:41.400Z,3.67
2019-01-14T02:51:41.815Z,3.73
2019-01-14T02:52:42.798Z,3.66
2019-01-14T02:53:43.784Z,3.56
2019-01-14T02:54:44.195Z,3.64
2019-01-14T02:55:44.614Z,3.64
2019-01-14T02:56:45.865Z,3.59
2019-01-14T02:57:47.117Z,3.55
2019-01-14T02:58:48.365Z,3.64
2019-01-14T02:59:49.238Z,3.53
2019-01-14T03:00:49.223Z,3.59
2019-01-14T03:01:49.640Z,3.61
2019-01-14T03:02:50.439Z,3.63
2019-01-14T03:03:50.577Z,3.66
2019-01-14T03:04:51.830Z,3.71
2019-01-14T03:05:51.817Z,3.7
2019-01-14T03:06:59.122Z,3.78
2019-01-14T03:07:04.297Z,3.74
2019-01-14T03:08:05.595Z,3.74
2019-01-14T03:09:06.029Z,3.71
2019-01-14T03:10:06.756Z,3.84
2019-01-14T03:11:07.007Z,3.91
2019-01-14T03:12:07.255Z,3.85
2019-01-14T03:13:08.234Z,3.81
2019-01-14T03:14:08.209Z,3.84
2019-01-14T03:15:08.903Z,3.85
2019-01-14T03:16:09.603Z,3.82
2019-01-14T03:17:10.859Z,3.85
2019-01-14T03:18:11.566Z,3.71
2019-01-14T03:19:11.821Z,3.7
2019-01-14T03:20:12.525Z,3.84
2019-01-14T03:21:12.776Z,3.78
2019-01-14T03:22:14.582Z,3.85
2019-01-14T03:23:14.557Z,3.85
2019-01-14T03:24:15.334Z,3.71
2019-01-14T03:25:16.302Z,3.86
2019-01-14T03:26:17.281Z,3.71
2019-01-14T03:27:17.423Z,3.71
2019-01-14T03:28:17.999Z,3.81
2019-01-14T03:29:18.693Z,3.76
2019-01-14T03:30:20.650Z,3.74
2019-01-14T03:31:20.695Z,3.85
2019-01-14T03:32:21.274Z,3.82
2019-01-14T03:33:22.679Z,3.81
2019-01-14T03:34:23.213Z,3.81
2019-01-14T03:35:24.190Z,3.73
2019-01-14T03:36:24.605Z,3.84
2019-01-14T03:37:26.203Z,3.73
2019-01-14T03:38:27.309Z,3.76
2019-01-14T03:39:27.835Z,3.76
2019-01-14T03:40:28.365Z,3.86
2019-01-14T03:41:28.124Z,3.86
2019-01-14T03:42:28.834Z,3.88
2019-01-14T03:43:29.358Z,3.99
2019-01-14T03:44:30.059Z,3.88
2019-01-14T03:45:31.027Z,3.89
2019-01-14T03:46:31.446Z,3.92
2019-01-14T03:47:31.876Z,3.77
2019-01-14T03:48:32.982Z,3.86
2019-01-14T03:49:33.401Z,3.78
2019-01-14T03:50:33.814Z,3.85
2019-01-14T03:51:35.076Z,3.91
2019-01-14T03:52:35.605Z,3.91
2019-01-14T03:53:36.581Z,3.92
2019-01-14T03:54:37.304Z,3.85
2019-01-14T03:55:37.996Z,3.84
2019-01-14T03:56:39.696Z,3.88
2019-01-14T03:57:39.837Z,3.91
2019-01-14T03:58:40.687Z,3.86
2019-01-14T03:59:41.102Z,3.88
2019-01-14T04:00:42.240Z,3.77
2019-01-14T04:01:42.936Z,3.89
2019-01-14T04:02:43.395Z,3.96
2019-01-14T04:03:44.123Z,3.92
2019-01-14T04:04:45.265Z,3.92
2019-01-14T04:05:46.682Z,3.95
2019-01-14T04:06:47.654Z,3.91
2019-01-14T04:07:48.901Z,3.89
2019-01-14T04:08:49.341Z,3.88
2019-01-14T04:09:50.309Z,3.71
2019-01-14T04:10:51.561Z,3.71
2019-01-14T04:11:51.980Z,3.73
2019-01-14T04:12:52.397Z,3.7
2019-01-14T04:13:53.108Z,3.7
2019-01-14T04:14:53.521Z,3.71
2019-01-14T04:15:54.214Z,3.74
2019-01-14T04:16:55.471Z,3.74
2019-01-14T04:17:56.442Z,3.74
2019-01-14T04:18:57.030Z,3.73
2019-01-14T04:19:57.722Z,3.61
2019-01-14T04:20:58.006Z,3.68
2019-01-14T04:21:58.423Z,3.68
2019-01-14T04:23:01.192Z,3.59
2019-01-14T04:23:59.797Z,3.71
2019-01-14T04:25:01.220Z,3.58
2019-01-14T04:26:01.191Z,3.55
2019-01-14T04:27:01.614Z,3.49
2019-01-14T04:28:03.259Z,3.53
2019-01-14T04:29:03.373Z,3.58
2019-01-14T04:30:04.527Z,3.53
2019-01-14T04:31:05.058Z,3.59
2019-01-14T04:32:06.322Z,3.45
2019-01-14T04:33:07.316Z,3.43
2019-01-14T04:34:08.006Z,3.49
2019-01-14T04:35:08.001Z,3.43
2019-01-14T04:36:09.146Z,3.49
2019-01-14T04:37:10.115Z,3.48
2019-01-14T04:38:10.818Z,3.36
2019-01-14T04:39:11.289Z,3.41
2019-01-14T04:40:11.304Z,3.3
2019-01-14T04:41:12.844Z,3.22
2019-01-14T04:42:13.551Z,3.26
2019-01-14T04:43:14.140Z,3.41
2019-01-14T04:44:15.160Z,3.26
2019-01-14T04:45:15.139Z,3.24
2019-01-14T04:46:16.139Z,3.3
2019-01-14T04:47:16.284Z,3.27
2019-01-14T04:48:17.531Z,3.43
2019-01-14T04:49:18.079Z,3.36
2019-01-14T04:50:18.517Z,3.41
2019-01-14T04:51:19.585Z,3.45
2019-01-14T04:52:20.035Z,3.45
2019-01-14T04:53:20.010Z,3.56
2019-01-14T04:54:20.492Z,3.52
2019-01-14T04:55:21.908Z,3.55
2019-01-14T04:56:22.657Z,3.48
2019-01-14T04:57:23.795Z,3.49
2019-01-14T04:58:24.497Z,3.43
2019-01-14T04:59:25.650Z,3.41
2019-01-14T05:00:26.389Z,3.49
2019-01-14T05:01:26.804Z,3.45
2019-01-14T05:02:27.502Z,3.55
2019-01-14T05:03:28.475Z,3.41
2019-01-14T05:04:29.447Z,3.49
2019-01-14T05:05:30.147Z,3.58
2019-01-14T05:06:31.119Z,3.61
2019-01-14T05:07:31.253Z,3.5
2019-01-14T05:08:32.437Z,3.48
2019-01-14T05:09:33.282Z,3.5
2019-01-14T05:10:33.733Z,3.53
2019-01-14T05:11:35.275Z,3.5
2019-01-14T05:12:35.697Z,3.59
2019-01-14T05:13:36.975Z,3.53
2019-01-14T05:14:37.405Z,3.58
2019-01-14T05:15:38.707Z,3.56
2019-01-14T05:16:39.127Z,3.53
2019-01-14T05:17:39.551Z,3.56
2019-01-14T05:18:40.246Z,3.53
2019-01-14T05:19:41.392Z,3.55
2019-01-14T05:20:42.381Z,3.48
2019-01-14T05:21:42.644Z,3.5
2019-01-14T05:22:43.058Z,3.5
2019-01-14T05:23:44.034Z,3.52
2019-01-14T05:24:44.451Z,3.49
2019-01-14T05:25:45.878Z,3.55
2019-01-14T05:26:46.849Z,3.48
2019-01-14T05:27:48.315Z,3.55
2019-01-14T05:28:48.570Z,3.53
2019-01-14T05:29:49.546Z,3.58
2019-01-14T05:30:49.707Z,3.48
2019-01-14T05:31:51.125Z,3.61
2019-01-14T05:32:51.818Z,3.61
2019-01-14T05:33:52.816Z,3.59
2019-01-14T05:34:54.254Z,3.53
2019-01-14T05:35:54.665Z,3.58
2019-01-14T05:36:55.355Z,3.55
2019-01-14T05:37:56.350Z,3.52
2019-01-14T05:38:56.488Z,3.49
2019-01-14T05:39:57.916Z,3.49
2019-01-14T05:40:58.333Z,3.55
2019-01-14T05:41:59.024Z,3.5
2019-01-14T05:42:59.441Z,3.48
2019-01-14T05:44:00.137Z,3.58
2019-01-14T05:45:00.971Z,3.49
2019-01-14T05:46:01.140Z,3.41
2019-01-14T05:47:01.557Z,3.5
2019-01-14T05:48:02.542Z,3.55
2019-01-14T05:49:02.972Z,3.53
2019-01-14T05:50:03.819Z,3.56
2019-01-14T05:51:04.516Z,3.58
2019-01-14T05:52:05.214Z,3.49
2019-01-14T05:53:05.919Z,3.58
2019-01-14T05:54:06.623Z,3.45
2019-01-14T05:55:07.876Z,3.49
2019-01-14T05:56:07.570Z,3.55
2019-01-14T05:57:08.268Z,3.63
2019-01-14T05:58:09.254Z,3.64
2019-01-14T05:59:11.017Z,3.66
2019-01-14T06:00:10.876Z,3.66
2019-01-14T06:01:12.195Z,3.64
2019-01-14T06:02:12.725Z,3.66
2019-01-14T06:03:13.695Z,3.59
2019-01-14T06:04:14.388Z,3.63
2019-01-14T06:05:15.081Z,3.66
2019-01-14T06:06:16.780Z,3.55
2019-01-14T06:07:17.192Z,3.59
2019-01-14T06:08:20.979Z,3.49
2019-01-14T06:09:19.671Z,3.58
2019-01-14T06:10:20.503Z,3.46
2019-01-14T06:11:20.934Z,3.49
2019-01-14T06:12:22.185Z,3.5
2019-01-14T06:13:22.156Z,3.46
2019-01-14T06:14:23.725Z,3.46
2019-01-14T06:15:24.437Z,3.34
2019-01-14T06:16:25.168Z,3.4
2019-01-14T06:17:25.700Z,3.41
2019-01-14T06:18:25.857Z,3.48
2019-01-14T06:19:26.548Z,3.41
2019-01-14T06:20:27.242Z,3.34
2019-01-14T06:21:27.712Z,3.36
2019-01-14T06:22:28.123Z,3.4
2019-01-14T06:23:28.577Z,3.45
2019-01-14T06:24:29.271Z,3.46
2019-01-14T06:25:30.519Z,3.41
2019-01-14T06:26:30.820Z,3.46
2019-01-14T06:27:30.791Z,3.45
2019-01-14T06:28:32.204Z,3.4
2019-01-14T06:29:32.345Z,3.46
2019-01-14T06:30:32.623Z,3.45
2019-01-14T06:31:33.763Z,3.4
2019-01-14T06:32:35.012Z,3.37
2019-01-14T06:33:36.151Z,3.4
2019-01-14T06:34:36.569Z,3.5
2019-01-14T06:35:37.264Z,3.4
2019-01-14T06:36:37.973Z,3.41
2019-01-14T06:37:39.221Z,3.55
2019-01-14T06:38:39.359Z,3.58
2019-01-14T06:39:41.051Z,3.4
2019-01-14T06:40:41.879Z,3.49
2019-01-14T06:41:42.290Z,3.46
2019-01-14T06:42:42.983Z,3.53
2019-01-14T06:43:43.959Z,3.37
2019-01-14T06:44:44.931Z,3.52
2019-01-14T06:45:44.902Z,3.36
2019-01-14T06:46:45.315Z,3.37
2019-01-14T06:47:46.013Z,3.34
2019-01-14T06:48:47.719Z,3.41
2019-01-14T06:49:47.856Z,3.31
2019-01-14T06:50:48.440Z,3.36
2019-01-14T06:51:48.907Z,3.36
2019-01-14T06:52:49.325Z,3.5
2019-01-14T06:53:50.183Z,3.41
2019-01-14T06:54:50.936Z,3.48
2019-01-14T06:55:51.356Z,3.37
2019-01-14T06:56:52.491Z,3.36
2019-01-14T06:57:53.742Z,3.41
2019-01-14T06:58:55.252Z,3.41
2019-01-14T06:59:55.352Z,3.43
2019-01-14T07:00:55.900Z,3.36
2019-01-14T07:01:56.946Z,3.41
2019-01-14T07:02:58.585Z,3.33
2019-01-14T07:04:00.379Z,3.43
2019-01-14T07:05:02.246Z,3.56
2019-01-14T07:06:03.022Z,3.36
2019-01-14T07:07:02.819Z,3.33
2019-01-14T07:08:03.698Z,3.41
2019-01-14T07:09:04.708Z,3.49
2019-01-14T07:10:04.707Z,3.49
2019-01-14T07:11:05.786Z,3.37
2019-01-14T07:12:06.693Z,3.36
2019-01-14T07:13:07.556Z,3.55
2019-01-14T07:14:07.992Z,3.52
2019-01-14T07:15:08.296Z,3.33
2019-01-14T07:16:08.552Z,3.26
2019-01-14T07:17:09.085Z,3.4
2019-01-14T07:18:10.239Z,3.33
2019-01-14T07:19:10.421Z,3.36
2019-01-14T07:20:11.843Z,3.21
2019-01-14T07:21:12.470Z,3.33
2019-01-14T07:22:12.887Z,3.34
2019-01-14T07:23:13.307Z,3.4
2019-01-14T07:24:14.278Z,3.33
2019-01-14T07:25:14.985Z,3.37
2019-01-14T07:26:15.525Z,3.41
2019-01-14T07:27:15.966Z,3.46
2019-01-14T07:28:21.238Z,3.53
2019-01-14T07:28:32.018Z,3.49
2019-01-14T07:29:29.335Z,3.5
2019-01-14T07:30:29.764Z,3.4
2019-01-14T07:31:30.902Z,3.49
2019-01-14T07:32:31.884Z,3.48
2019-01-14T07:33:32.300Z,3.45
2019-01-14T07:34:33.445Z,3.45
2019-01-14T07:35:33.862Z,3.41
2019-01-14T07:36:34.836Z,3.52
2019-01-14T07:37:35.810Z,3.49
2019-01-14T07:38:40.544Z,3.46
2019-01-14T07:38:49.513Z,3.46
2019-01-14T07:39:49.257Z,3.59
2019-01-14T07:40:51.873Z,3.55
2019-01-14T07:41:52.837Z,3.45
2019-01-14T07:42:53.356Z,3.41
2019-01-14T07:43:53.777Z,3.41
2019-01-14T07:44:54.474Z,3.48
2019-01-14T07:45:54.662Z,3.41
2019-01-14T07:46:55.808Z,3.43
2019-01-14T07:47:56.229Z,3.48
2019-01-14T07:48:56.658Z,3.5
2019-01-14T07:49:57.500Z,3.49
2019-01-14T07:50:58.197Z,3.53
2019-01-14T07:51:58.620Z,3.41
2019-01-14T07:52:59.355Z,3.52
2019-01-14T07:54:00.065Z,3.4
2019-01-14T07:55:01.488Z,3.4
2019-01-14T07:56:02.475Z,3.43
2019-01-14T07:57:03.168Z,3.4
2019-01-14T07:58:08.351Z,3.37
2019-01-14T07:58:19.965Z,3.4
2019-01-14T07:58:32.844Z,3.34
2019-01-14T07:59:29.474Z,3.46
2019-01-14T08:00:29.891Z,3.37
2019-01-14T08:01:30.909Z,3.34
2019-01-14T08:02:31.325Z,3.5
2019-01-14T08:03:31.746Z,3.49
2019-01-14T08:04:32.441Z,3.48
2019-01-14T08:05:32.581Z,3.52
2019-01-14T08:06:32.999Z,3.34
2019-01-14T08:07:33.698Z,3.3
2019-01-14T08:08:34.833Z,3.3
2019-01-14T08:09:35.009Z,3.27
2019-01-14T08:10:35.707Z,3.31
2019-01-14T08:11:38.081Z,3.41
2019-01-14T08:12:39.566Z,3.34
2019-01-14T08:13:39.305Z,3.41
2019-01-14T08:14:43.433Z,3.43
2019-01-14T08:15:41.416Z,3.34
2019-01-14T08:16:41.837Z,3.26
2019-01-14T08:17:45.921Z,3.34
2019-01-14T08:18:43.773Z,3.34
2019-01-14T08:19:44.328Z,3.37
2019-01-14T08:20:47.426Z,3.4
2019-01-14T08:21:47.568Z,3.45
2019-01-14T08:22:48.709Z,3.45
2019-01-14T08:23:49.959Z,3.33
2019-01-14T08:24:51.215Z,3.31
2019-01-14T08:25:50.910Z,3.45
2019-01-14T08:26:51.049Z,3.45
2019-01-14T08:27:53.214Z,3.26
2019-01-14T08:28:53.048Z,3.31
2019-01-14T08:29:53.975Z,3.3
2019-01-14T08:31:00.029Z,3.3
2019-01-14T08:31:09.184Z,3.34
2019-01-14T08:31:22.044Z,3.3
2019-01-14T08:32:19.787Z,3.41
2019-01-14T08:33:25.049Z,3.22
2019-01-14T08:33:32.230Z,3.31
2019-01-14T08:34:32.834Z,3.37
2019-01-14T08:35:32.975Z,3.34
2019-01-14T08:36:33.672Z,3.45
2019-01-14T08:37:34.925Z,3.53
2019-01-14T08:38:35.341Z,3.63
2019-01-14T08:39:36.365Z,3.46
2019-01-14T08:40:37.505Z,3.53
2019-01-14T08:41:42.125Z,3.53
2019-01-14T08:42:40.449Z,3.5
2019-01-14T08:43:40.594Z,3.56
2019-01-14T08:44:42.020Z,3.58
2019-01-14T08:45:43.037Z,3.59
2019-01-14T08:46:43.180Z,3.55
2019-01-14T08:47:44.156Z,3.45
2019-01-14T08:48:49.829Z,3.52
2019-01-14T08:49:50.804Z,3.49
2019-01-14T08:50:51.505Z,3.58
2019-01-14T08:51:51.926Z,3.41
2019-01-14T08:52:54.336Z,3.43
2019-01-14T08:53:54.481Z,3.49
2019-01-14T08:54:58.161Z,3.4
2019-01-14T08:55:57.161Z,3.45
2019-01-14T08:56:57.326Z,3.45
2019-01-14T08:57:58.318Z,3.58
2019-01-14T08:58:59.212Z,3.58
2019-01-14T08:59:59.920Z,3.55
2019-01-14T09:01:00.006Z,3.5
2019-01-14T09:02:00.700Z,3.53
2019-01-14T09:03:00.675Z,3.55
2019-01-14T09:04:02.094Z,3.5
2019-01-14T09:05:02.510Z,3.5
2019-01-14T09:06:03.069Z,3.63
2019-01-14T09:07:04.601Z,3.59
2019-01-14T09:08:07.827Z,3.67
2019-01-14T09:09:07.247Z,3.64
2019-01-14T09:10:11.735Z,3.68
2019-01-14T09:10:22.897Z,3.64
2019-01-14T09:10:35.213Z,3.63
2019-01-14T09:10:47.834Z,3.59
2019-01-14T09:11:44.958Z,3.56
2019-01-14T09:12:45.378Z,3.67
2019-01-14T09:13:48.620Z,3.63
2019-01-14T09:14:01.758Z,3.67
2019-01-14T09:14:12.978Z,3.59
2019-01-14T09:14:26.077Z,3.63
2019-01-14T09:14:38.487Z,3.63
2019-01-14T09:14:50.726Z,3.61
2019-01-14T09:15:02.947Z,3.63
2019-01-14T09:15:13.441Z,3.63
2019-01-14T09:16:11.782Z,3.63
2019-01-14T09:17:12.925Z,3.55
2019-01-14T09:18:13.353Z,3.63
2019-01-14T09:19:18.366Z,3.58
2019-01-14T09:20:21.465Z,3.61
2019-01-14T09:20:29.558Z,3.59
2019-01-14T09:21:30.381Z,3.67
2019-01-14T09:22:31.634Z,3.56
2019-01-14T09:23:31.782Z,3.64
2019-01-14T09:24:32.203Z,3.64
2019-01-14T09:25:34.092Z,3.67
2019-01-14T09:26:34.506Z,3.7
2019-01-14T09:27:34.929Z,3.71
2019-01-14T09:28:37.775Z,3.71
2019-01-14T09:29:36.595Z,3.76
2019-01-14T09:30:37.298Z,3.67
2019-01-14T09:31:38.164Z,3.67
2019-01-14T09:32:39.307Z,3.73
2019-01-14T09:33:41.009Z,3.71
2019-01-14T09:34:41.274Z,3.7
2019-01-14T09:35:42.283Z,3.74
2019-01-14T09:36:42.435Z,3.71
2019-01-14T09:37:42.868Z,3.68
2019-01-14T09:38:44.011Z,3.73
2019-01-14T09:39:44.994Z,3.7
2019-01-14T09:40:45.690Z,3.71
2019-01-14T09:41:46.823Z,3.76
2019-01-14T09:42:47.809Z,3.71
2019-01-14T09:43:47.963Z,3.82
2019-01-14T09:44:49.388Z,3.85
2019-01-14T09:45:49.530Z,3.81
2019-01-14T09:46:50.505Z,3.88
2019-01-14T09:47:53.615Z,3.84
2019-01-14T09:48:53.167Z,3.86
2019-01-14T09:49:53.371Z,3.81
2019-01-14T09:50:05.617Z,3.88
2019-01-14T09:51:06.290Z,3.82
2019-01-14T09:52:06.438Z,3.85
2019-01-14T09:53:07.970Z,3.84
2019-01-14T09:54:08.387Z,3.91
2019-01-14T09:55:09.646Z,3.84
2019-01-14T09:56:11.354Z,3.86
2019-01-14T09:57:11.547Z,3.96
2019-01-14T09:58:12.603Z,3.85
2019-01-14T09:59:13.951Z,3.84
2019-01-14T10:00:14.529Z,3.76
2019-01-14T10:01:14.963Z,3.73
2019-01-14T10:02:16.105Z,3.67
2019-01-14T10:03:16.951Z,3.7
2019-01-14T10:04:17.550Z,3.76
2019-01-14T10:05:17.866Z,3.66
2019-01-14T10:06:20.370Z,3.67
2019-01-14T10:06:33.203Z,3.67
2019-01-14T10:07:33.784Z,3.61
2019-01-14T10:08:34.776Z,3.66
2019-01-14T10:08:46.691Z,3.61
2019-01-14T10:09:47.246Z,3.67
2019-01-14T10:10:48.668Z,3.67
2019-01-14T10:11:53.275Z,3.59
2019-01-14T10:12:02.681Z,3.59
2019-01-14T10:13:02.836Z,3.59
2019-01-14T10:14:03.028Z,3.68
2019-01-14T10:15:05.855Z,3.66
2019-01-14T10:16:04.730Z,3.63
2019-01-14T10:17:05.433Z,3.7
2019-01-14T10:18:06.491Z,3.73
2019-01-14T10:19:06.915Z,3.59
2019-01-14T10:20:07.338Z,3.58
2019-01-14T10:21:08.324Z,3.73
2019-01-14T10:22:09.603Z,3.73
2019-01-14T10:23:10.439Z,3.61
2019-01-14T10:24:12.421Z,3.63
2019-01-14T10:25:12.855Z,3.63
2019-01-14T10:26:13.611Z,3.64
2019-01-14T10:27:17.761Z,3.56
2019-01-14T10:28:19.383Z,3.59
2019-01-14T10:29:18.707Z,3.59
2019-01-14T10:30:23.353Z,3.63
2019-01-14T10:30:35.669Z,3.49
2019-01-14T10:30:49.001Z,3.55
2019-01-14T10:31:01.017Z,3.45
2019-01-14T10:31:10.064Z,3.5
2019-01-14T10:32:09.531Z,3.45
2019-01-14T10:33:09.678Z,3.49
2019-01-14T10:34:10.933Z,3.43
2019-01-14T10:35:11.356Z,3.36
2019-01-14T10:36:12.054Z,3.5
2019-01-14T10:37:12.475Z,3.45
2019-01-14T10:38:13.174Z,3.27
2019-01-14T10:39:13.883Z,3.45
2019-01-14T10:40:14.862Z,3.41
2019-01-14T10:41:15.853Z,3.33
2019-01-14T10:42:16.373Z,3.37
2019-01-14T10:43:17.094Z,3.33
2019-01-14T10:44:22.558Z,3.33
2019-01-14T10:44:33.435Z,3.24
2019-01-14T10:44:45.526Z,3.3
2019-01-14T10:44:56.396Z,3.4
2019-01-14T10:45:55.256Z,3.4
2019-01-14T10:46:55.470Z,3.41
2019-01-14T10:47:55.619Z,3.41
2019-01-14T10:48:58.669Z,3.55
2019-01-14T10:50:01.520Z,3.4
2019-01-14T10:50:11.872Z,3.49
2019-01-14T10:51:11.620Z,3.45
2019-01-14T10:52:11.590Z,3.52
2019-01-14T10:53:12.574Z,3.53
2019-01-14T10:54:13.288Z,3.66
2019-01-14T10:55:14.259Z,3.58
2019-01-14T10:56:14.677Z,3.63
2019-01-14T10:57:15.096Z,3.58
2019-01-14T10:58:15.817Z,3.63
2019-01-14T10:59:17.517Z,3.66
2019-01-14T11:00:20.728Z,3.64
2019-01-14T11:01:19.126Z,3.67
2019-01-14T11:02:23.192Z,3.73
2019-01-14T11:03:22.417Z,3.82
2019-01-14T11:04:22.606Z,3.88
2019-01-14T11:05:23.619Z,3.89
2019-01-14T11:06:24.627Z,3.84
2019-01-14T11:07:29.468Z,3.77
2019-01-14T11:07:38.367Z,3.82
2019-01-14T11:08:39.450Z,3.85
2019-01-14T11:09:45.267Z,3.92
2019-01-14T11:10:40.948Z,3.91
2019-01-14T11:11:40.920Z,3.94
2019-01-14T11:12:41.270Z,3.91
2019-01-14T11:13:41.855Z,3.92
2019-01-14T11:14:44.564Z,3.95
2019-01-14T11:15:43.391Z,3.89
2019-01-14T11:16:44.419Z,3.99
2019-01-14T11:17:44.562Z,3.99
2019-01-14T11:18:45.397Z,3.99
2019-01-14T11:19:47.350Z,3.92
2019-01-14T11:20:47.235Z,3.92
2019-01-14T11:21:51.284Z,3.99
2019-01-14T11:22:02.616Z,3.96
2019-01-14T11:23:01.393Z,3.94
2019-01-14T11:24:06.010Z,4.06
2019-01-14T11:25:04.802Z,4.13
2019-01-14T11:26:04.508Z,4.14
2019-01-14T11:27:05.654Z,4.04
2019-01-14T11:28:07.347Z,4.1
2019-01-14T11:29:07.769Z,4.04
2019-01-14T11:30:08.192Z,3.92
2019-01-14T11:31:08.617Z,4
2019-01-14T11:32:10.033Z,4
2019-01-14T11:33:10.304Z,4
2019-01-14T11:34:11.005Z,3.89
2019-01-14T11:35:11.705Z,3.89
2019-01-14T11:36:12.961Z,3.96
2019-01-14T11:37:13.658Z,3.95
2019-01-14T11:38:14.401Z,3.92
2019-01-14T11:39:14.827Z,3.96
2019-01-14T11:40:15.254Z,3.99
2019-01-14T11:41:16.231Z,3.94
2019-01-14T11:42:18.475Z,3.91
2019-01-14T11:43:18.033Z,3.96
2019-01-14T11:44:19.453Z,3.94
2019-01-14T11:45:19.600Z,3.86
2019-01-14T11:46:20.302Z,4
2019-01-14T11:47:20.721Z,4.02
2019-01-14T11:48:21.869Z,4.02
2019-01-14T11:49:23.291Z,4.04
2019-01-14T11:50:24.444Z,4.02
2019-01-14T11:51:24.870Z,3.95
2019-01-14T11:52:25.566Z,3.92
2019-01-14T11:53:26.477Z,3.92
2019-01-14T11:54:29.597Z,3.96
2019-01-14T11:55:31.708Z,3.94
2019-01-14T11:56:30.128Z,4.02
2019-01-14T11:57:30.833Z,4
2019-01-14T11:58:31.299Z,3.92
2019-01-14T11:59:32.553Z,3.88
2019-01-14T12:00:37.994Z,3.77
2019-01-14T12:01:38.728Z,3.73
2019-01-14T12:02:41.280Z,3.73
2019-01-14T12:03:44.108Z,3.7
2019-01-14T12:04:43.187Z,3.67
2019-01-14T12:05:43.603Z,3.66
2019-01-14T12:06:44.304Z,3.74
2019-01-14T12:07:45.446Z,3.77
2019-01-14T12:08:45.868Z,3.73
2019-01-14T12:09:47.013Z,3.67
2019-01-14T12:10:48.158Z,3.64
2019-01-14T12:11:52.695Z,3.76
2019-01-14T12:12:01.808Z,3.77
2019-01-14T12:13:05.300Z,3.74
2019-01-14T12:14:03.607Z,3.61
2019-01-14T12:15:03.585Z,3.71
2019-01-14T12:16:03.582Z,3.76
2019-01-14T12:17:04.878Z,3.7
2019-01-14T12:18:06.685Z,3.82
2019-01-14T12:19:06.851Z,3.73
2019-01-14T12:20:08.551Z,3.67
2019-01-14T12:21:08.694Z,3.7
2019-01-14T12:22:09.794Z,3.73
2019-01-14T12:23:09.880Z,3.66
2019-01-14T12:24:11.207Z,3.64
2019-01-14T12:25:12.114Z,3.68
2019-01-14T12:26:12.836Z,3.68
2019-01-14T12:27:14.959Z,3.66
2019-01-14T12:28:15.455Z,3.61
2019-01-14T12:29:16.322Z,3.66
2019-01-14T12:30:16.671Z,3.63
2019-01-14T12:31:17.472Z,3.58
2019-01-14T12:32:18.183Z,3.59
2019-01-14T12:33:19.012Z,3.64
2019-01-14T12:34:19.934Z,3.67
2019-01-14T12:35:20.824Z,3.58
2019-01-14T12:36:22.055Z,3.59
2019-01-14T12:37:22.146Z,3.63
2019-01-14T12:38:22.666Z,3.43
2019-01-14T12:39:24.238Z,3.46
2019-01-14T12:40:26.879Z,3.55
2019-01-14T12:41:27.536Z,3.61
2019-01-14T12:42:28.461Z,3.71
2019-01-14T12:43:29.455Z,3.71
2019-01-14T12:44:29.428Z,3.74
2019-01-14T12:45:30.140Z,3.68
2019-01-14T12:46:34.651Z,3.71
2019-01-14T12:46:44.581Z,3.7
2019-01-14T12:47:41.907Z,3.71
2019-01-14T12:48:45.464Z,3.7
2019-01-14T12:48:57.269Z,3.77
2019-01-14T12:49:09.685Z,3.7
2019-01-14T12:49:21.265Z,3.7
2019-01-14T12:49:33.003Z,3.71
2019-01-14T12:49:43.292Z,3.73
2019-01-14T12:50:42.937Z,3.7
2019-01-14T12:51:43.364Z,3.71
2019-01-14T12:52:43.750Z,3.91
2019-01-14T12:53:47.266Z,3.88
2019-01-14T12:54:46.575Z,3.85
2019-01-14T12:55:46.997Z,3.76
2019-01-14T12:56:47.417Z,3.84
2019-01-14T12:57:47.846Z,3.88
2019-01-14T12:58:49.552Z,3.89
2019-01-14T12:59:49.973Z,3.88
2019-01-14T13:00:50.417Z,3.84